createdAt,value
2023-01-22T00:00:35.208Z,13.63
2023-01-22T00:03:04.259Z,12.63
2023-01-22T00:05:32.605Z,12.43
2023-01-22T00:08:00.542Z,12.10
2023-01-22T00:10:28.150Z,13.00
2023-01-22T00:12:55.749Z,11.50
2023-01-22T00:15:23.322Z,10.10
2023-01-22T00:17:51.384Z,11.97
2023-01-22T00:20:21.137Z,12.20
2023-01-22T00:22:48.691Z,11.90
2023-01-22T00:25:16.298Z,11.27
2023-01-22T00:27:44.242Z,12.27
2023-01-22T00:30:13.165Z,10.40
2023-01-22T00:32:40.756Z,10.87
2023-01-22T00:35:10.780Z,10.00
2023-01-22T00:37:40.283Z,11.07
2023-01-22T00:40:08.578Z,12.17
2023-01-22T00:42:36.604Z,11.53
2023-01-22T00:45:04.542Z,10.90
2023-01-22T00:47:33.206Z,11.50
2023-01-22T00:50:01.329Z,10.40
2023-01-22T00:52:28.901Z,10.87
2023-01-22T00:54:57.943Z,11.00
2023-01-22T00:57:27.024Z,9.87
2023-01-22T00:59:54.573Z,10.60
2023-01-22T01:02:23.371Z,11.07
2023-01-22T01:04:51.045Z,10.17
2023-01-22T01:07:19.260Z,11.33
2023-01-22T01:09:46.862Z,9.40
2023-01-22T01:12:16.790Z,9.40
2023-01-22T01:14:45.000Z,10.63
2023-01-22T01:17:12.602Z,10.03
2023-01-22T01:19:40.219Z,9.80
2023-01-22T01:22:08.166Z,11.30
2023-01-22T01:24:36.973Z,11.50
2023-01-22T01:27:04.682Z,12.80
2023-01-22T01:29:34.383Z,11.20
2023-01-22T01:32:02.055Z,10.10
2023-01-22T01:34:29.785Z,11.90
2023-01-22T01:36:58.240Z,10.23
2023-01-22T01:39:26.248Z,10.57
2023-01-22T01:41:54.292Z,9.93
2023-01-22T01:44:24.388Z,10.10
2023-01-22T01:46:58.460Z,11.23
2023-01-22T01:49:33.760Z,10.37
2023-01-22T01:52:23.975Z,10.90
2023-01-22T01:59:03.908Z,9.27
2023-01-22T02:02:36.028Z,11.37
2023-01-22T02:09:08.382Z,10.70
2023-01-22T02:12:04.163Z,10.60
2023-01-22T02:14:46.236Z,10.70
2023-01-22T02:17:19.194Z,11.23
2023-01-22T02:19:47.737Z,11.63
2023-01-22T02:22:20.373Z,10.37
2023-01-22T02:24:48.935Z,10.57
2023-01-22T02:27:18.022Z,11.80
2023-01-22T02:29:47.330Z,11.00
2023-01-22T02:32:16.636Z,11.80
2023-01-22T02:34:44.384Z,11.13
2023-01-22T02:37:12.985Z,11.70
2023-01-22T02:39:42.525Z,9.83
2023-01-22T02:42:10.284Z,11.97
2023-01-22T02:44:39.913Z,9.70
2023-01-22T02:47:08.089Z,10.93
2023-01-22T02:49:35.731Z,10.87
2023-01-22T02:52:03.951Z,10.53
2023-01-22T02:54:32.977Z,12.10
2023-01-22T02:57:02.030Z,12.20
2023-01-22T02:59:31.107Z,11.57
2023-01-22T03:01:58.839Z,11.50
2023-01-22T03:04:28.830Z,10.60
2023-01-22T03:06:56.788Z,12.00
2023-01-22T03:09:30.356Z,11.40
2023-01-22T03:11:59.626Z,11.33
2023-01-22T03:14:50.786Z,10.60
2023-01-22T03:17:36.861Z,10.33
2023-01-22T03:20:23.103Z,10.33
2023-01-22T03:22:50.767Z,10.80
2023-01-22T03:25:20.252Z,11.00
2023-01-22T03:28:03.131Z,10.33
2023-01-22T03:30:33.056Z,10.97
2023-01-22T03:33:01.283Z,11.10
2023-01-22T03:35:28.939Z,10.03
2023-01-22T03:38:23.377Z,9.93
2023-01-22T03:40:51.078Z,10.83
2023-01-22T03:43:22.303Z,11.60
2023-01-22T03:45:51.499Z,10.70
2023-01-22T03:48:21.231Z,12.27
2023-01-22T03:50:49.647Z,10.37
2023-01-22T03:53:17.557Z,11.00
2023-01-22T03:55:45.243Z,11.07
2023-01-22T03:58:12.979Z,10.13
2023-01-22T04:00:41.234Z,10.77
2023-01-22T04:03:10.653Z,10.30
2023-01-22T04:05:41.056Z,11.20
2023-01-22T04:08:09.138Z,12.37
2023-01-22T04:10:40.798Z,11.00
2023-01-22T04:13:08.487Z,8.93
2023-01-22T04:15:38.013Z,9.60
2023-01-22T04:18:17.693Z,9.77
2023-01-22T04:21:02.872Z,10.00
2023-01-22T04:23:42.441Z,9.90
2023-01-22T04:26:10.117Z,10.70
2023-01-22T04:28:38.046Z,11.20
2023-01-22T04:31:08.637Z,11.43
2023-01-22T04:33:46.781Z,11.23
2023-01-22T04:36:29.328Z,10.57
2023-01-22T04:38:57.147Z,11.70
2023-01-22T04:41:25.677Z,10.80
2023-01-22T04:43:53.848Z,12.00
2023-01-22T04:46:24.838Z,11.40
2023-01-22T04:48:55.079Z,12.10
2023-01-22T04:51:23.256Z,12.77
2023-01-22T04:53:51.004Z,11.17
2023-01-22T04:56:18.996Z,10.10
2023-01-22T04:58:49.911Z,10.17
2023-01-22T05:01:17.803Z,11.03
2023-01-22T05:03:46.335Z,9.97
2023-01-22T05:06:15.653Z,11.33
2023-01-22T05:08:44.546Z,12.60
2023-01-22T05:11:12.821Z,11.17
2023-01-22T05:13:49.477Z,10.97
2023-01-22T05:16:17.948Z,11.57
2023-01-22T05:18:45.822Z,11.00
2023-01-22T05:21:14.887Z,11.57
2023-01-22T05:23:43.632Z,11.90
2023-01-22T05:26:12.281Z,10.87
2023-01-22T05:28:52.624Z,13.30
2023-01-22T05:31:31.158Z,13.33
2023-01-22T05:34:04.261Z,11.43
2023-01-22T05:36:33.796Z,13.70
2023-01-22T05:39:09.078Z,11.20
2023-01-22T05:41:37.003Z,10.43
2023-01-22T05:44:05.909Z,11.40
2023-01-22T05:46:34.079Z,11.33
2023-01-22T05:49:20.032Z,11.23
2023-01-22T05:51:50.908Z,10.50
2023-01-22T05:54:19.233Z,11.87
2023-01-22T05:56:49.190Z,11.23
2023-01-22T05:59:16.971Z,12.57
2023-01-22T06:01:50.409Z,11.03
2023-01-22T06:04:18.057Z,11.83
2023-01-22T06:06:46.205Z,10.67
2023-01-22T06:09:15.552Z,11.43
2023-01-22T06:11:44.187Z,11.00
2023-01-22T06:14:12.154Z,11.37
2023-01-22T06:16:40.189Z,10.80
2023-01-22T06:19:25.847Z,12.23
2023-01-22T06:21:55.494Z,10.97
2023-01-22T06:24:38.431Z,11.20
2023-01-22T06:27:08.138Z,11.97
2023-01-22T06:29:49.858Z,11.33
2023-01-22T06:32:18.095Z,11.83
2023-01-22T06:34:45.890Z,10.80
2023-01-22T06:37:13.716Z,11.10
2023-01-22T06:39:44.460Z,11.10
2023-01-22T06:42:22.044Z,13.33
2023-01-22T06:44:50.820Z,11.03
2023-01-22T06:47:20.911Z,12.30
2023-01-22T06:49:48.707Z,12.00
2023-01-22T06:52:17.319Z,12.50
2023-01-22T06:54:46.263Z,11.07
2023-01-22T06:57:14.423Z,10.80
2023-01-22T06:59:42.338Z,11.80
2023-01-22T07:02:16.461Z,12.80
2023-01-22T07:04:45.092Z,12.97
2023-01-22T07:07:12.864Z,12.33
2023-01-22T07:09:41.387Z,10.77
2023-01-22T07:12:10.470Z,12.10
2023-01-22T07:14:38.128Z,12.93
2023-01-22T07:17:05.972Z,12.07
2023-01-22T07:19:33.709Z,12.53
2023-01-22T07:22:01.347Z,14.50
2023-01-22T07:24:28.989Z,13.77
2023-01-22T07:26:56.992Z,15.17
2023-01-22T07:29:26.046Z,13.33
2023-01-22T07:31:54.054Z,12.90
2023-01-22T07:34:22.021Z,12.40
2023-01-22T07:36:49.732Z,12.97
2023-01-22T07:39:17.653Z,12.53
2023-01-22T07:41:45.500Z,12.83
2023-01-22T07:44:13.396Z,12.07
2023-01-22T07:46:42.718Z,12.30
2023-01-22T07:49:11.880Z,11.43
2023-01-22T07:51:39.877Z,12.33
2023-01-22T07:54:07.771Z,12.13
2023-01-22T07:56:35.507Z,14.20
2023-01-22T07:59:03.261Z,12.20
2023-01-22T08:01:31.383Z,13.00
2023-01-22T08:04:00.474Z,14.43
2023-01-22T08:06:29.184Z,12.77
2023-01-22T08:08:59.338Z,13.10
2023-01-22T08:11:27.888Z,12.63
2023-01-22T08:13:55.677Z,11.53
2023-01-22T08:16:23.586Z,11.13
2023-01-22T08:18:51.887Z,11.93
2023-01-22T08:21:21.401Z,12.70
2023-01-22T08:23:49.478Z,13.20
2023-01-22T08:26:18.164Z,11.73
2023-01-22T08:28:45.764Z,13.77
2023-01-22T08:31:26.377Z,11.73
2023-01-22T08:33:57.000Z,13.40
2023-01-22T08:36:26.820Z,14.00
2023-01-22T08:38:55.198Z,16.00
2023-01-22T08:41:23.724Z,17.00
2023-01-22T08:43:52.715Z,16.43
2023-01-22T08:46:21.687Z,13.77
2023-01-22T08:48:50.997Z,13.20
2023-01-22T08:51:18.800Z,14.63
2023-01-22T08:53:48.813Z,12.70
2023-01-22T08:56:17.151Z,12.90
2023-01-22T08:58:44.856Z,14.80
2023-01-22T09:01:16.754Z,13.17
2023-01-22T09:03:44.989Z,14.17
2023-01-22T09:06:13.842Z,14.40
2023-01-22T09:08:41.605Z,12.70
2023-01-22T09:11:11.560Z,13.00
2023-01-22T09:13:39.995Z,13.23
2023-01-22T09:16:11.277Z,14.27
2023-01-22T09:18:40.080Z,13.10
2023-01-22T09:21:09.835Z,13.43
2023-01-22T09:23:38.543Z,14.43
2023-01-22T09:26:06.982Z,10.53
2023-01-22T09:28:36.591Z,13.00
2023-01-22T09:31:04.533Z,13.10
2023-01-22T09:33:34.473Z,11.40
2023-01-22T09:36:10.868Z,11.43
2023-01-22T09:38:39.174Z,11.80
2023-01-22T09:41:15.029Z,10.33
2023-01-22T09:43:51.101Z,8.77
2023-01-22T09:46:24.461Z,9.93
2023-01-22T09:48:58.813Z,7.53
2023-01-22T09:51:27.297Z,9.27
2023-01-22T09:53:59.511Z,8.80
2023-01-22T09:56:37.838Z,8.60
2023-01-22T09:59:14.252Z,8.83
2023-01-22T10:01:43.290Z,8.70
2023-01-22T10:04:23.670Z,9.60
2023-01-22T10:06:53.783Z,9.60
2023-01-22T10:09:22.326Z,9.50
2023-01-22T10:11:54.317Z,10.30
2023-01-22T10:14:26.578Z,10.30
2023-01-22T10:16:55.807Z,9.30
2023-01-22T10:19:28.810Z,9.67
2023-01-22T10:22:01.684Z,9.77
2023-01-22T10:24:30.562Z,8.70
2023-01-22T10:27:00.178Z,9.87
2023-01-22T10:29:33.563Z,9.37
2023-01-22T10:32:03.436Z,10.93
2023-01-22T10:34:34.865Z,9.20
2023-01-22T10:37:04.734Z,9.50
2023-01-22T10:39:42.704Z,10.30
2023-01-22T10:42:17.320Z,9.90
2023-01-22T10:44:46.663Z,11.00
2023-01-22T10:47:21.237Z,10.53
2023-01-22T10:49:49.456Z,9.83
2023-01-22T10:52:38.358Z,9.37
2023-01-22T10:55:07.528Z,11.63
2023-01-22T10:57:37.745Z,10.43
2023-01-22T11:00:24.221Z,10.50
2023-01-22T11:02:52.478Z,9.83
2023-01-22T11:05:21.647Z,10.37
2023-01-22T11:07:52.047Z,12.30
2023-01-22T11:10:25.212Z,10.90
2023-01-22T11:12:58.731Z,9.20
2023-01-22T11:15:40.680Z,8.23
2023-01-22T11:18:09.059Z,8.00
2023-01-22T11:20:46.604Z,7.53
2023-01-22T11:23:21.682Z,7.20
2023-01-22T11:25:56.258Z,7.63
2023-01-22T11:28:34.480Z,7.00
2023-01-22T11:31:20.657Z,6.40
2023-01-22T11:34:12.401Z,7.70
2023-01-22T11:36:46.437Z,8.60
2023-01-22T11:39:29.044Z,7.63
2023-01-22T11:42:04.241Z,7.90
2023-01-22T11:44:49.681Z,9.30
2023-01-22T11:47:51.036Z,7.80
2023-01-22T11:50:27.955Z,7.10
2023-01-22T11:53:19.053Z,9.00
2023-01-22T11:56:08.346Z,10.23
2023-01-22T11:58:43.676Z,8.70
2023-01-22T12:01:20.126Z,9.50
2023-01-22T12:04:39.400Z,9.43
2023-01-22T12:07:41.812Z,8.53
2023-01-22T12:10:38.504Z,9.10
2023-01-22T12:13:17.408Z,8.50
2023-01-22T12:15:52.241Z,8.83
2023-01-22T12:18:54.614Z,8.33
2023-01-22T12:21:35.880Z,8.00
2023-01-22T12:24:10.546Z,8.30
2023-01-22T12:26:44.882Z,8.13
2023-01-22T12:29:19.544Z,7.27
2023-01-22T12:31:51.907Z,8.60
2023-01-22T12:34:26.563Z,7.57
2023-01-22T12:36:57.015Z,6.73
2023-01-22T12:39:28.150Z,7.97
2023-01-22T12:42:09.807Z,7.80
2023-01-22T12:44:55.693Z,9.60
2023-01-22T12:47:30.488Z,9.17
2023-01-22T12:49:58.816Z,9.67
2023-01-22T12:52:37.057Z,8.20
2023-01-22T12:55:22.324Z,8.27
2023-01-22T12:57:51.520Z,9.47
2023-01-22T13:00:34.357Z,9.53
2023-01-22T13:03:05.561Z,9.70
2023-01-22T13:05:42.566Z,8.40
2023-01-22T13:08:26.747Z,8.50
2023-01-22T13:10:57.291Z,9.33
2023-01-22T13:13:30.559Z,9.30
2023-01-22T13:16:03.619Z,9.70
2023-01-22T13:18:37.116Z,9.30
2023-01-22T13:21:07.221Z,9.30
2023-01-22T13:23:42.630Z,9.73
2023-01-22T13:26:18.357Z,10.40
2023-01-22T13:28:52.111Z,12.07
2023-01-22T13:31:20.637Z,8.90
2023-01-22T13:33:57.485Z,9.63
2023-01-22T13:36:26.292Z,10.90
2023-01-22T13:38:57.435Z,9.97
2023-01-22T13:41:35.887Z,8.30
2023-01-22T13:44:05.285Z,10.80
2023-01-22T13:46:38.160Z,9.50
2023-01-22T13:49:09.238Z,10.93
2023-01-22T13:51:38.925Z,9.20
2023-01-22T13:54:08.756Z,10.47
2023-01-22T13:57:11.911Z,11.27
2023-01-22T13:59:39.671Z,10.23
2023-01-22T14:02:24.313Z,10.83
2023-01-22T14:04:52.408Z,11.07
2023-01-22T14:07:30.393Z,11.37
2023-01-22T14:10:12.548Z,10.90
2023-01-22T14:12:40.745Z,13.00
2023-01-22T14:15:15.624Z,13.70
2023-01-22T14:17:43.706Z,10.37
2023-01-22T14:20:12.655Z,9.67
2023-01-22T14:22:41.260Z,9.27
2023-01-22T14:25:11.627Z,9.17
2023-01-22T14:27:45.706Z,10.07
2023-01-22T14:30:18.013Z,10.17
2023-01-22T14:32:46.897Z,9.90
2023-01-22T14:35:18.496Z,10.17
2023-01-22T14:37:46.837Z,8.37
2023-01-22T14:40:19.353Z,10.27
2023-01-22T14:42:48.324Z,9.10
2023-01-22T14:45:17.911Z,10.47
2023-01-22T14:47:51.726Z,8.70
2023-01-22T14:50:20.294Z,10.03
2023-01-22T14:52:49.545Z,8.70
2023-01-22T14:55:19.317Z,10.43
2023-01-22T14:57:48.997Z,9.87
2023-01-22T15:00:20.339Z,9.30
2023-01-22T15:02:49.045Z,8.63
2023-01-22T15:05:18.157Z,11.03
2023-01-22T15:07:48.328Z,9.63
2023-01-22T15:10:17.093Z,9.27
2023-01-22T15:12:51.302Z,8.50
2023-01-22T15:15:28.751Z,10.00
2023-01-22T15:17:58.937Z,8.33
2023-01-22T15:20:30.532Z,8.80
2023-01-22T15:23:00.386Z,9.93
2023-01-22T15:25:28.297Z,9.23
2023-01-22T15:27:59.612Z,10.60
2023-01-22T15:30:28.851Z,10.10
2023-01-22T15:32:56.981Z,10.00
2023-01-22T15:35:24.930Z,8.50
2023-01-22T15:37:53.189Z,9.77
2023-01-22T15:40:24.963Z,12.10
2023-01-22T15:42:52.806Z,11.03
2023-01-22T15:45:25.289Z,9.40
2023-01-22T15:47:54.893Z,8.90
2023-01-22T15:50:23.464Z,9.17
2023-01-22T15:52:55.474Z,9.20
2023-01-22T15:55:25.537Z,8.67
2023-01-22T15:58:00.260Z,10.03
2023-01-22T16:00:29.997Z,10.97
2023-01-22T16:02:59.781Z,11.13
2023-01-22T16:05:31.536Z,9.33
2023-01-22T16:08:03.361Z,8.53
2023-01-22T16:10:31.083Z,9.67
2023-01-22T16:12:59.293Z,9.77
2023-01-22T16:15:33.197Z,8.70
2023-01-22T16:18:03.094Z,10.37
2023-01-22T16:20:34.467Z,9.10
2023-01-22T16:23:03.247Z,9.00
2023-01-22T16:25:32.722Z,8.63
2023-01-22T16:28:02.439Z,9.80
2023-01-22T16:30:31.086Z,9.37
2023-01-22T16:32:59.060Z,12.33
2023-01-22T16:35:30.024Z,10.10
2023-01-22T16:37:59.502Z,10.87
2023-01-22T16:40:27.814Z,10.77
2023-01-22T16:42:59.858Z,10.13
2023-01-22T16:45:29.073Z,10.47
2023-01-22T16:47:58.818Z,11.17
2023-01-22T16:50:26.959Z,10.40
2023-01-22T16:53:00.545Z,11.90
2023-01-22T16:55:31.825Z,11.30
2023-01-22T16:58:00.835Z,12.23
2023-01-22T17:00:31.643Z,11.93
2023-01-22T17:03:00.087Z,10.90
2023-01-22T17:05:28.315Z,11.27
2023-01-22T17:07:57.347Z,13.67
2023-01-22T17:10:25.405Z,13.73
2023-01-22T17:12:53.204Z,13.23
2023-01-22T17:15:22.602Z,12.27
2023-01-22T17:17:54.045Z,10.80
2023-01-22T17:20:31.356Z,12.23
2023-01-22T17:23:38.286Z,11.90
2023-01-22T17:26:47.911Z,10.00
2023-01-22T17:29:44.556Z,11.40
2023-01-22T17:32:41.180Z,11.93
2023-01-22T17:35:32.246Z,12.53
2023-01-22T17:38:01.892Z,11.57
2023-01-22T17:43:20.289Z,14.00
2023-01-22T17:45:51.445Z,13.03
2023-01-22T17:48:26.066Z,13.87
2023-01-22T17:50:53.756Z,14.10
2023-01-22T17:53:21.649Z,11.47
2023-01-22T17:55:50.054Z,10.20
2023-01-22T17:58:20.590Z,11.20
2023-01-22T18:00:52.162Z,10.60
2023-01-22T18:03:22.867Z,10.47
2023-01-22T18:05:54.755Z,11.50
2023-01-22T18:08:28.823Z,11.17
2023-01-22T18:11:07.380Z,10.70
2023-01-22T18:13:58.768Z,11.07
2023-01-22T18:16:31.077Z,10.53
2023-01-22T18:19:04.099Z,11.30
2023-01-22T18:21:38.112Z,11.37
2023-01-22T18:24:17.949Z,9.40
2023-01-22T18:26:52.690Z,10.30
2023-01-22T18:29:22.748Z,11.03
2023-01-22T18:31:54.626Z,10.50
2023-01-22T18:34:22.833Z,9.80
2023-01-22T18:36:54.776Z,10.33
2023-01-22T18:39:22.762Z,12.07
2023-01-22T18:41:52.177Z,12.27
2023-01-22T18:44:30.833Z,12.43
2023-01-22T18:47:17.925Z,10.00
2023-01-22T18:49:50.204Z,10.57
2023-01-22T18:52:20.352Z,12.07
2023-01-22T18:54:54.612Z,10.90
2023-01-22T19:00:49.060Z,9.83
2023-01-22T19:03:24.090Z,11.30
2023-01-22T19:05:53.432Z,11.27
2023-01-22T19:08:51.500Z,11.63
2023-01-22T19:11:24.600Z,11.37
2023-01-22T19:14:03.131Z,11.17
2023-01-22T19:16:38.029Z,10.70
2023-01-22T19:19:19.262Z,13.13
2023-01-22T19:21:54.254Z,11.03
2023-01-22T19:24:29.033Z,11.90
2023-01-22T19:26:57.981Z,11.37
2023-01-22T19:29:30.630Z,11.90
2023-01-22T19:32:02.265Z,12.00
2023-01-22T19:34:34.375Z,13.30
2023-01-22T19:37:07.946Z,12.43
2023-01-22T19:39:41.696Z,12.87
2023-01-22T19:42:19.998Z,12.10
2023-01-22T19:44:52.131Z,13.00
2023-01-22T19:47:39.729Z,14.63
2023-01-22T19:50:15.165Z,13.43
2023-01-22T19:52:52.951Z,12.47
2023-01-22T19:55:28.421Z,13.20
2023-01-22T19:57:58.133Z,13.30
2023-01-22T20:00:29.522Z,13.60
2023-01-22T20:02:58.536Z,15.60
2023-01-22T20:05:28.373Z,16.33
2023-01-22T20:08:02.132Z,14.10
2023-01-22T20:10:32.894Z,13.17
2023-01-22T20:13:05.304Z,12.90
2023-01-22T20:15:39.016Z,12.90
2023-01-22T20:18:07.280Z,13.67
2023-01-22T20:20:37.638Z,13.40
2023-01-22T20:23:05.511Z,13.40
2023-01-22T20:25:33.187Z,13.20
2023-01-22T20:28:03.197Z,12.70
2023-01-22T20:30:37.315Z,13.33
2023-01-22T20:33:11.095Z,12.97
2023-01-22T20:36:03.189Z,12.43
2023-01-22T20:38:36.361Z,12.13
2023-01-22T20:41:09.594Z,15.10
2023-01-22T20:43:38.405Z,12.97
2023-01-22T20:55:02.656Z,12.77
2023-01-22T20:57:31.045Z,12.83
2023-01-22T20:59:59.468Z,13.20
2023-01-22T21:02:27.305Z,12.53
2023-01-22T21:04:56.832Z,13.57
2023-01-22T21:07:24.489Z,13.10
2023-01-22T21:09:52.301Z,12.60
2023-01-22T21:12:21.459Z,13.47
2023-01-22T21:14:52.962Z,12.40
2023-01-22T21:17:22.813Z,11.63
2023-01-22T21:19:51.597Z,12.50
2023-01-22T21:22:19.603Z,11.57
2023-01-22T21:24:47.246Z,11.20
2023-01-22T21:27:15.711Z,11.97
2023-01-22T21:29:44.792Z,11.87
2023-01-22T21:32:14.286Z,13.20
2023-01-22T21:34:42.769Z,11.23
2023-01-22T21:37:10.386Z,12.30
2023-01-22T21:39:45.261Z,11.80
2023-01-22T21:42:45.351Z,11.77
2023-01-22T21:45:31.735Z,11.23
2023-01-22T21:47:59.369Z,11.90
2023-01-22T21:50:27.719Z,11.43
2023-01-22T21:52:55.789Z,12.10
2023-01-22T21:55:23.531Z,11.30
2023-01-22T21:57:52.182Z,11.00
2023-01-22T22:00:22.026Z,11.80
2023-01-22T22:02:52.270Z,11.87
2023-01-22T22:05:20.291Z,12.40
2023-01-22T22:07:48.833Z,10.80
2023-01-22T22:10:17.953Z,12.77
2023-01-22T22:12:46.229Z,11.60
2023-01-22T22:15:15.381Z,10.83
2023-01-22T22:17:46.350Z,11.80
2023-01-22T22:20:14.195Z,12.20
2023-01-22T22:22:42.545Z,10.70
2023-01-22T22:25:10.787Z,12.80
2023-01-22T22:27:38.856Z,12.10
2023-01-22T22:30:07.541Z,11.17
2023-01-22T22:32:35.177Z,11.57
2023-01-22T22:35:05.056Z,10.90
2023-01-22T22:37:32.752Z,11.57
2023-01-22T22:40:00.459Z,11.70
2023-01-22T22:42:28.803Z,11.90
2023-01-22T22:44:56.438Z,11.50
2023-01-22T22:47:24.428Z,11.97
2023-01-22T22:49:52.036Z,11.03
2023-01-22T22:52:22.334Z,11.63
2023-01-22T22:54:50.030Z,11.60
2023-01-22T22:57:18.045Z,11.50
2023-01-22T22:59:45.669Z,11.87
2023-01-22T23:02:14.111Z,10.30
2023-01-22T23:04:41.782Z,12.07
2023-01-22T23:07:09.895Z,11.90
2023-01-22T23:09:39.456Z,11.33
2023-01-22T23:12:07.488Z,11.93
2023-01-22T23:14:35.917Z,12.30
2023-01-22T23:17:04.692Z,11.30
2023-01-22T23:19:32.759Z,11.70
2023-01-22T23:22:01.749Z,11.93
2023-01-22T23:24:31.745Z,12.80
2023-01-22T23:27:01.565Z,10.73
2023-01-22T23:29:29.481Z,12.00
2023-01-22T23:31:58.504Z,11.37
2023-01-22T23:34:26.245Z,11.27
2023-01-22T23:36:53.893Z,12.13
2023-01-22T23:39:22.546Z,10.20
2023-01-22T23:41:50.680Z,11.97
2023-01-22T23:44:20.474Z,12.00
2023-01-22T23:46:48.200Z,11.43
2023-01-22T23:49:16.214Z,12.30
2023-01-22T23:51:44.769Z,13.00
2023-01-22T23:54:12.971Z,11.43
2023-01-22T23:56:40.581Z,11.47
2023-01-22T23:59:08.301Z,12.77
